sensor_id;sensor_type;location;lat;lon;timestamp;pressure;altitude;pressure_sealevel;temperature;humidity
61506;BME280;47366;51.916;4.574;2024-03-23T00:55:59;101213.34;;;8.95;97.32
61506;BME280;47366;51.916;4.574;2024-03-23T00:58:25;101204.53;;;8.91;97.59
61506;BME280;47366;51.916;4.574;2024-03-23T01:00:50;101201.66;;;8.95;97.55
61506;BME280;47366;51.916;4.574;2024-03-23T01:03:15;101203.41;;;8.96;97.59
61506;BME280;47366;51.916;4.574;2024-03-23T01:05:41;101198.00;;;8.96;97.56
61506;BME280;47366;51.916;4.574;2024-03-23T01:08:06;101190.13;;;8.91;97.57
61506;BME280;47366;51.916;4.574;2024-03-23T01:10:32;101193.94;;;8.87;98.28
61506;BME280;47366;51.916;4.574;2024-03-23T01:12:57;101193.84;;;8.88;97.85
61506;BME280;47366;51.916;4.574;2024-03-23T01:15:22;101199.19;;;8.90;97.85
61506;BME280;47366;51.916;4.574;2024-03-23T01:17:47;101197.41;;;8.89;97.60
61506;BME280;47366;51.916;4.574;2024-03-23T01:20:13;101196.56;;;8.88;97.41
61506;BME280;47366;51.916;4.574;2024-03-23T01:22:38;101184.28;;;8.81;97.37
61506;BME280;47366;51.916;4.574;2024-03-23T01:25:03;101188.84;;;8.81;97.21
61506;BME280;47366;51.916;4.574;2024-03-23T01:27:29;101194.97;;;8.84;97.08
61506;BME280;47366;51.916;4.574;2024-03-23T01:29:54;101192.56;;;8.78;97.07
61506;BME280;47366;51.916;4.574;2024-03-23T01:32:20;101181.75;;;8.78;97.04
61506;BME280;47366;51.916;4.574;2024-03-23T01:34:45;101185.31;;;8.79;96.92
61506;BME280;47366;51.916;4.574;2024-03-23T01:37:11;101192.41;;;8.81;96.75
61506;BME280;47366;51.916;4.574;2024-03-23T01:39:36;101180.31;;;8.71;95.12
61506;BME280;47366;51.916;4.574;2024-03-23T01:42:02;101180.38;;;8.69;95.82
61506;BME280;47366;51.916;4.574;2024-03-23T01:44:27;101185.63;;;8.73;96.58
61506;BME280;47366;51.916;4.574;2024-03-23T01:46:53;101175.88;;;8.70;96.31
61506;BME280;47366;51.916;4.574;2024-03-23T01:49:18;101184.03;;;8.68;96.21
61506;BME280;47366;51.916;4.574;2024-03-23T01:51:44;101181.56;;;8.64;96.06
61506;BME280;47366;51.916;4.574;2024-03-23T01:54:10;101176.38;;;8.59;95.53
61506;BME280;47366;51.916;4.574;2024-03-23T01:56:36;101177.22;;;8.60;95.13
61506;BME280;47366;51.916;4.574;2024-03-23T01:59:02;101179.00;;;8.61;95.75
61506;BME280;47366;51.916;4.574;2024-03-23T02:01:28;101172.78;;;8.59;95.00
61506;BME280;47366;51.916;4.574;2024-03-23T02:03:53;101175.50;;;8.59;95.00
61506;BME280;47366;51.916;4.574;2024-03-23T02:06:18;101161.47;;;8.50;94.49
61506;BME280;47366;51.916;4.574;2024-03-23T02:08:44;101173.81;;;8.56;94.37
61506;BME280;47366;51.916;4.574;2024-03-23T02:11:09;101162.44;;;8.49;94.32
61506;BME280;47366;51.916;4.574;2024-03-23T02:13:35;101166.97;;;8.49;94.19
61506;BME280;47366;51.916;4.574;2024-03-23T02:16:00;101153.69;;;8.44;94.32
61506;BME280;47366;51.916;4.574;2024-03-23T02:18:26;101163.63;;;8.44;93.93
61506;BME280;47366;51.916;4.574;2024-03-23T02:20:51;101152.06;;;8.40;94.41
61506;BME280;47366;51.916;4.574;2024-03-23T02:23:17;101164.47;;;8.44;93.88
61506;BME280;47366;51.916;4.574;2024-03-23T02:25:46;101149.50;;;8.37;93.79
61506;BME280;47366;51.916;4.574;2024-03-23T02:28:11;101152.94;;;8.41;93.47
61506;BME280;47366;51.916;4.574;2024-03-23T02:30:37;101156.50;;;8.41;93.78
61506;BME280;47366;51.916;4.574;2024-03-23T02:33:03;101152.19;;;8.37;93.77
61506;BME280;47366;51.916;4.574;2024-03-23T02:35:29;101145.19;;;8.33;93.56
61506;BME280;47366;51.916;4.574;2024-03-23T02:37:54;101157.47;;;8.40;93.49
61506;BME280;47366;51.916;4.574;2024-03-23T02:40:22;101153.28;;;8.33;93.13
61506;BME280;47366;51.916;4.574;2024-03-23T02:42:48;101154.31;;;8.30;92.95
61506;BME280;47366;51.916;4.574;2024-03-23T02:45:13;101150.84;;;8.27;93.25
61506;BME280;47366;51.916;4.574;2024-03-23T02:47:38;101150.94;;;8.25;92.61
61506;BME280;47366;51.916;4.574;2024-03-23T02:50:04;101155.47;;;8.25;93.02
61506;BME280;47366;51.916;4.574;2024-03-23T02:52:30;101158.25;;;8.23;92.52
61506;BME280;47366;51.916;4.574;2024-03-23T02:54:56;101148.47;;;8.21;92.39
61506;BME280;47366;51.916;4.574;2024-03-23T02:57:21;101138.75;;;8.17;92.93
61506;BME280;47366;51.916;4.574;2024-03-23T02:59:47;101145.91;;;8.18;91.85
61506;BME280;47366;51.916;4.574;2024-03-23T03:02:13;101138.69;;;8.18;92.61
61506;BME280;47366;51.916;4.574;2024-03-23T03:04:39;101141.53;;;8.15;92.49
61506;BME280;47366;51.916;4.574;2024-03-23T03:07:04;101134.16;;;8.19;92.29
61506;BME280;47366;51.916;4.574;2024-03-23T03:09:29;101127.25;;;8.13;92.25
61506;BME280;47366;51.916;4.574;2024-03-23T03:11:55;101130.00;;;8.12;92.08
61506;BME280;47366;51.916;4.574;2024-03-23T03:14:20;101123.81;;;8.09;91.98
61506;BME280;47366;51.916;4.574;2024-03-23T03:16:46;101134.44;;;8.13;92.58
61506;BME280;47366;51.916;4.574;2024-03-23T03:19:11;101132.97;;;8.05;92.01
61506;BME280;47366;51.916;4.574;2024-03-23T03:21:37;101141.38;;;7.99;92.33
61506;BME280;47366;51.916;4.574;2024-03-23T03:24:03;101145.91;;;7.99;92.31
61506;BME280;47366;51.916;4.574;2024-03-23T03:26:28;101129.94;;;7.94;92.49
61506;BME280;47366;51.916;4.574;2024-03-23T03:28:53;101144.00;;;8.01;92.07
61506;BME280;47366;51.916;4.574;2024-03-23T03:31:19;101137.88;;;7.97;92.05
61506;BME280;47366;51.916;4.574;2024-03-23T03:33:44;101135.38;;;7.93;92.17
61506;BME280;47366;51.916;4.574;2024-03-23T03:36:10;101132.75;;;7.91;91.31
61506;BME280;47366;51.916;4.574;2024-03-23T03:38:36;101124.78;;;7.88;91.46
61506;BME280;47366;51.916;4.574;2024-03-23T03:41:02;101127.66;;;7.85;90.79
61506;BME280;47366;51.916;4.574;2024-03-23T03:43:27;101128.44;;;7.87;90.21
61506;BME280;47366;51.916;4.574;2024-03-23T03:45:54;101117.88;;;7.82;90.71
61506;BME280;47366;51.916;4.574;2024-03-23T03:48:19;101120.38;;;7.87;90.57
61506;BME280;47366;51.916;4.574;2024-03-23T03:50:45;101117.56;;;7.88;90.63
61506;BME280;47366;51.916;4.574;2024-03-23T03:53:10;101117.50;;;7.90;90.12
61506;BME280;47366;51.916;4.574;2024-03-23T03:55:36;101115.69;;;7.91;90.07
61506;BME280;47366;51.916;4.574;2024-03-23T03:58:02;101110.44;;;7.87;89.31
61506;BME280;47366;51.916;4.574;2024-03-23T04:00:27;101104.25;;;7.85;89.32
61506;BME280;47366;51.916;4.574;2024-03-23T04:02:52;101095.56;;;7.79;89.41
61506;BME280;47366;51.916;4.574;2024-03-23T04:05:18;101098.03;;;7.83;89.86
61506;BME280;47366;51.916;4.574;2024-03-23T04:07:44;101098.03;;;7.83;89.67
61506;BME280;47366;51.916;4.574;2024-03-23T04:10:09;101108.63;;;7.88;89.79
61506;BME280;47366;51.916;4.574;2024-03-23T04:12:35;101095.56;;;7.79;89.45
61506;BME280;47366;51.916;4.574;2024-03-23T04:15:00;101102.06;;;7.75;89.27
61506;BME280;47366;51.916;4.574;2024-03-23T04:17:29;101106.28;;;7.80;90.02
61506;BME280;47366;51.916;4.574;2024-03-23T04:19:57;101103.53;;;7.82;89.67
61506;BME280;47366;51.916;4.574;2024-03-23T04:22:22;101099.22;;;7.78;89.66
61506;BME280;47366;51.916;4.574;2024-03-23T04:24:49;101109.13;;;7.77;89.61
61506;BME280;47366;51.916;4.574;2024-03-23T04:27:15;101095.97;;;7.70;89.35
61506;BME280;47366;51.916;4.574;2024-03-23T04:29:40;101096.72;;;7.73;89.98
61506;BME280;47366;51.916;4.574;2024-03-23T04:32:05;101093.22;;;7.71;89.28
61506;BME280;47366;51.916;4.574;2024-03-23T04:34:31;101100.34;;;7.72;89.90
61506;BME280;47366;51.916;4.574;2024-03-23T04:36:58;101088.78;;;7.70;90.03
61506;BME280;47366;51.916;4.574;2024-03-23T04:39:23;101098.66;;;7.70;89.91
61506;BME280;47366;51.916;4.574;2024-03-23T04:41:49;101089.00;;;7.65;89.03
61506;BME280;47366;51.916;4.574;2024-03-23T04:44:15;101093.38;;;7.68;89.31
61506;BME280;47366;51.916;4.574;2024-03-23T04:46:40;101097.06;;;7.65;89.60
61506;BME280;47366;51.916;4.574;2024-03-23T04:49:06;101091.03;;;7.60;89.75
61506;BME280;47366;51.916;4.574;2024-03-23T04:51:35;101097.41;;;7.58;89.57
61506;BME280;47366;51.916;4.574;2024-03-23T04:54:02;101093.97;;;7.54;89.55
61506;BME280;47366;51.916;4.574;2024-03-23T04:56:27;101090.47;;;7.52;89.54
61506;BME280;47366;51.916;4.574;2024-03-23T04:58:53;101089.66;;;7.50;89.57
61506;BME280;47366;51.916;4.574;2024-03-23T05:01:19;101093.13;;;7.54;90.46
61506;BME280;47366;51.916;4.574;2024-03-23T05:03:44;101097.53;;;7.55;90.47
61506;BME280;47366;51.916;4.574;2024-03-23T05:06:10;101087.97;;;7.48;90.19
61506;BME280;47366;51.916;4.574;2024-03-23T05:08:35;101093.47;;;7.46;90.22
61506;BME280;47366;51.916;4.574;2024-03-23T05:11:00;101097.09;;;7.45;90.16
61506;BME280;47366;51.916;4.574;2024-03-23T05:13:26;101099.72;;;7.47;90.31
61506;BME280;47366;51.916;4.574;2024-03-23T05:15:55;101096.00;;;7.49;89.83
61506;BME280;47366;51.916;4.574;2024-03-23T05:18:21;101095.66;;;7.57;89.93
61506;BME280;47366;51.916;4.574;2024-03-23T05:20:47;101106.38;;;7.58;89.86
61506;BME280;47366;51.916;4.574;2024-03-23T05:23:12;101106.38;;;7.58;89.56
61506;BME280;47366;51.916;4.574;2024-03-23T05:25:37;101092.09;;;7.56;89.70
61506;BME280;47366;51.916;4.574;2024-03-23T05:28:03;101095.50;;;7.60;89.35
61506;BME280;47366;51.916;4.574;2024-03-23T05:30:28;101094.59;;;7.61;89.64
61506;BME280;47366;51.916;4.574;2024-03-23T05:32:54;101098.22;;;7.60;89.22
61506;BME280;47366;51.916;4.574;2024-03-23T05:35:19;101085.84;;;7.56;89.53
61506;BME280;47366;51.916;4.574;2024-03-23T05:37:44;101093.72;;;7.60;89.16
61506;BME280;47366;51.916;4.574;2024-03-23T05:40:11;101093.47;;;7.65;89.14
61506;BME280;47366;51.916;4.574;2024-03-23T05:42:39;101086.34;;;7.64;88.96
61506;BME280;47366;51.916;4.574;2024-03-23T05:45:04;101094.50;;;7.62;88.49
61506;BME280;47366;51.916;4.574;2024-03-23T05:47:31;101093.47;;;7.65;88.82
61506;BME280;47366;51.916;4.574;2024-03-23T05:49:57;101090.53;;;7.71;88.90
61506;BME280;47366;51.916;4.574;2024-03-23T05:52:22;101086.94;;;7.71;88.67
61506;BME280;47366;51.916;4.574;2024-03-23T05:54:50;101087.38;;;7.61;88.05
61506;BME280;47366;51.916;4.574;2024-03-23T05:57:15;101088.31;;;7.60;87.70
61506;BME280;47366;51.916;4.574;2024-03-23T05:59:41;101089.25;;;7.59;87.29
61506;BME280;47366;51.916;4.574;2024-03-23T06:02:06;101100.03;;;7.59;86.89
61506;BME280;47366;51.916;4.574;2024-03-23T06:04:32;101081.72;;;7.47;86.73
61506;BME280;47366;51.916;4.574;2024-03-23T06:06:57;101098.41;;;7.55;87.29
61506;BME280;47366;51.916;4.574;2024-03-23T06:09:23;101105.63;;;7.55;86.38
61506;BME280;47366;51.916;4.574;2024-03-23T06:11:48;101097.63;;;7.53;86.38
61506;BME280;47366;51.916;4.574;2024-03-23T06:14:13;101102.94;;;7.55;86.93
61506;BME280;47366;51.916;4.574;2024-03-23T06:16:39;101094.03;;;7.53;86.71
61506;BME280;47366;51.916;4.574;2024-03-23T06:19:04;101093.84;;;7.57;86.91
61506;BME280;47366;51.916;4.574;2024-03-23T06:21:32;101098.34;;;7.57;86.55
61506;BME280;47366;51.916;4.574;2024-03-23T06:23:57;101084.22;;;7.52;85.96
61506;BME280;47366;51.916;4.574;2024-03-23T06:26:23;101095.25;;;7.66;86.60
61506;BME280;47366;51.916;4.574;2024-03-23T06:28:48;101085.53;;;7.62;86.64
61506;BME280;47366;51.916;4.574;2024-03-23T06:31:14;101099.78;;;7.65;87.16
61506;BME280;47366;51.916;4.574;2024-03-23T06:33:40;101103.13;;;7.71;87.20
61506;BME280;47366;51.916;4.574;2024-03-23T06:36:08;101102.47;;;7.65;86.87
61506;BME280;47366;51.916;4.574;2024-03-23T06:38:34;101098.75;;;7.68;87.06
61506;BME280;47366;51.916;4.574;2024-03-23T06:41:02;101097.59;;;7.74;87.02
61506;BME280;47366;51.916;4.574;2024-03-23T06:43:27;101102.25;;;7.70;86.14
61506;BME280;47366;51.916;4.574;2024-03-23T06:45:54;101092.41;;;7.69;85.64
61506;BME280;47366;51.916;4.574;2024-03-23T06:48:20;101101.59;;;7.84;86.20
61506;BME280;47366;51.916;4.574;2024-03-23T06:50:45;101102.78;;;7.97;85.92
61506;BME280;47366;51.916;4.574;2024-03-23T06:53:14;101104.41;;;8.01;85.86
61506;BME280;47366;51.916;4.574;2024-03-23T06:55:40;101102.75;;;7.99;84.55
61506;BME280;47366;51.916;4.574;2024-03-23T06:58:05;101101.84;;;8.17;85.50
61506;BME280;47366;51.916;4.574;2024-03-23T07:00:31;101111.63;;;8.20;85.05
61506;BME280;47366;51.916;4.574;2024-03-23T07:02:57;101099.75;;;8.24;84.31
61506;BME280;47366;51.916;4.574;2024-03-23T07:05:22;101096.25;;;8.41;83.53
61506;BME280;47366;51.916;4.574;2024-03-23T07:07:48;101089.91;;;8.61;83.07
61506;BME280;47366;51.916;4.574;2024-03-23T07:10:13;101105.03;;;8.82;82.10
61506;BME280;47366;51.916;4.574;2024-03-23T07:12:38;101089.56;;;8.67;79.61
61506;BME280;47366;51.916;4.574;2024-03-23T07:15:04;101103.75;;;8.53;79.44
61506;BME280;47366;51.916;4.574;2024-03-23T07:17:30;101097.25;;;8.38;80.28
61506;BME280;47366;51.916;4.574;2024-03-23T07:19:55;101107.84;;;8.43;81.47
61506;BME280;47366;51.916;4.574;2024-03-23T07:22:21;101102.53;;;8.41;80.81
61506;BME280;47366;51.916;4.574;2024-03-23T07:24:46;101100.50;;;8.46;80.89
61506;BME280;47366;51.916;4.574;2024-03-23T07:27:12;101107.47;;;8.50;81.17
61506;BME280;47366;51.916;4.574;2024-03-23T07:29:37;101095.44;;;8.58;81.31
61506;BME280;47366;51.916;4.574;2024-03-23T07:32:03;101106.41;;;8.72;80.00
61506;BME280;47366;51.916;4.574;2024-03-23T07:34:28;101100.72;;;8.78;78.99
61506;BME280;47366;51.916;4.574;2024-03-23T07:36:53;101105.16;;;8.79;79.41
61506;BME280;47366;51.916;4.574;2024-03-23T07:39:19;101102.47;;;8.79;79.37
61506;BME280;47366;51.916;4.574;2024-03-23T07:41:45;101099.22;;;8.73;80.05
61506;BME280;47366;51.916;4.574;2024-03-23T07:44:10;101100.53;;;8.64;80.33
61506;BME280;47366;51.916;4.574;2024-03-23T07:46:36;101098.94;;;8.60;80.32
61506;BME280;47366;51.916;4.574;2024-03-23T07:49:01;101096.88;;;8.65;80.74
61506;BME280;47366;51.916;4.574;2024-03-23T07:51:27;101085.38;;;8.61;80.33
61506;BME280;47366;51.916;4.574;2024-03-23T07:53:52;101088.22;;;8.58;79.74
61506;BME280;47366;51.916;4.574;2024-03-23T07:56:18;101091.75;;;8.78;79.18
61506;BME280;47366;51.916;4.574;2024-03-23T07:58:45;101082.97;;;9.09;78.15
61506;BME280;47366;51.916;4.574;2024-03-23T08:01:12;101086.94;;;9.19;78.02
61506;BME280;47366;51.916;4.574;2024-03-23T08:03:39;101095.88;;;9.54;77.44
61506;BME280;47366;51.916;4.574;2024-03-23T08:08:34;101089.22;;;9.27;75.84
61506;BME280;47366;51.916;4.574;2024-03-23T08:11:04;101091.22;;;9.06;76.86
61506;BME280;47366;51.916;4.574;2024-03-23T08:13:30;101087.81;;;9.02;77.93
61506;BME280;47366;51.916;4.574;2024-03-23T08:15:57;101093.28;;;9.01;78.02
61506;BME280;47366;51.916;4.574;2024-03-23T08:18:22;101088.78;;;9.01;77.45
61506;BME280;47366;51.916;4.574;2024-03-23T08:21:04;101083.34;;;9.19;77.21
61506;BME280;47366;51.916;4.574;2024-03-23T08:23:32;101093.44;;;9.32;77.35
61506;BME280;47366;51.916;4.574;2024-03-23T08:26:06;101104.72;;;9.41;77.18
61506;BME280;47366;51.916;4.574;2024-03-23T08:28:31;101097.88;;;9.51;75.32
61506;BME280;47366;51.916;4.574;2024-03-23T08:31:03;101095.19;;;9.33;76.14
61506;BME280;47366;51.916;4.574;2024-03-23T08:33:30;101097.09;;;9.14;74.99
61506;BME280;47366;51.916;4.574;2024-03-23T08:36:00;101097.97;;;8.97;75.13
61506;BME280;47366;51.916;4.574;2024-03-23T08:38:48;101084.94;;;8.88;75.76
61506;BME280;47366;51.916;4.574;2024-03-23T08:41:15;101093.84;;;9.07;75.79
61506;BME280;47366;51.916;4.574;2024-03-23T08:43:41;101085.81;;;9.23;76.17
61506;BME280;47366;51.916;4.574;2024-03-23T08:46:08;101086.16;;;9.34;76.41
61506;BME280;47366;51.916;4.574;2024-03-23T08:48:38;101085.75;;;9.25;74.86
61506;BME280;47366;51.916;4.574;2024-03-23T08:51:05;101090.88;;;9.29;75.21
61506;BME280;47366;51.916;4.574;2024-03-23T08:53:31;101085.50;;;9.12;75.09
61506;BME280;47366;51.916;4.574;2024-03-23T08:55:57;101086.28;;;8.97;74.62
61506;BME280;47366;51.916;4.574;2024-03-23T08:58:26;101080.16;;;9.10;75.98
61506;BME280;47366;51.916;4.574;2024-03-23T09:00:54;101095.97;;;9.35;75.09
61506;BME280;47366;51.916;4.574;2024-03-23T09:03:25;101100.25;;;9.57;74.13
61506;BME280;47366;51.916;4.574;2024-03-23T09:05:52;101094.78;;;9.59;74.21
61506;BME280;47366;51.916;4.574;2024-03-23T09:08:18;101091.31;;;9.39;74.36
61506;BME280;47366;51.916;4.574;2024-03-23T09:10:43;101102.16;;;9.55;72.88
61506;BME280;47366;51.916;4.574;2024-03-23T09:13:09;101090.06;;;9.95;72.98
61506;BME280;47366;51.916;4.574;2024-03-23T09:15:35;101087.56;;;10.24;69.29
61506;BME280;47366;51.916;4.574;2024-03-23T09:18:01;101082.25;;;10.23;71.19
61506;BME280;47366;51.916;4.574;2024-03-23T09:20:27;101078.66;;;10.70;71.16
61506;BME280;47366;51.916;4.574;2024-03-23T09:22:52;101083.88;;;11.19;70.32
61506;BME280;47366;51.916;4.574;2024-03-23T09:25:18;101082.69;;;11.53;68.56
61506;BME280;47366;51.916;4.574;2024-03-23T09:27:46;101073.66;;;11.38;67.59
61506;BME280;47366;51.916;4.574;2024-03-23T09:30:12;101088.28;;;11.05;67.18
61506;BME280;47366;51.916;4.574;2024-03-23T09:32:37;101098.13;;;10.92;67.01
61506;BME280;47366;51.916;4.574;2024-03-23T09:35:04;101096.97;;;10.96;66.12
61506;BME280;47366;51.916;4.574;2024-03-23T09:37:29;101091.81;;;11.22;64.34
61506;BME280;47366;51.916;4.574;2024-03-23T09:39:54;101092.56;;;11.10;66.14
61506;BME280;47366;51.916;4.574;2024-03-23T09:42:20;101080.56;;;10.83;64.42
61506;BME280;47366;51.916;4.574;2024-03-23T09:44:45;101083.44;;;11.11;64.29
61506;BME280;47366;51.916;4.574;2024-03-23T09:47:12;101081.81;;;11.53;64.63
61506;BME280;47366;51.916;4.574;2024-03-23T09:49:38;101086.63;;;11.33;62.59
61506;BME280;47366;51.916;4.574;2024-03-23T09:52:03;101093.25;;;11.72;64.03
61506;BME280;47366;51.916;4.574;2024-03-23T09:54:29;101076.81;;;12.18;64.31
61506;BME280;47366;51.916;4.574;2024-03-23T09:56:55;101082.72;;;11.96;62.50
61506;BME280;47366;51.916;4.574;2024-03-23T09:59:20;101079.63;;;11.74;60.31
61506;BME280;47366;51.916;4.574;2024-03-23T10:01:46;101086.47;;;11.65;62.23
61506;BME280;47366;51.916;4.574;2024-03-23T10:04:12;101070.41;;;11.76;62.21
61506;BME280;47366;51.916;4.574;2024-03-23T10:06:38;101073.09;;;11.47;61.74
61506;BME280;47366;51.916;4.574;2024-03-23T10:09:16;101071.31;;;11.18;62.99
61506;BME280;47366;51.916;4.574;2024-03-23T10:11:43;101079.63;;;11.29;65.50
61506;BME280;47366;51.916;4.574;2024-03-23T10:14:09;101073.31;;;11.14;62.79
61506;BME280;47366;51.916;4.574;2024-03-23T10:16:34;101089.97;;;11.53;63.19
61506;BME280;47366;51.916;4.574;2024-03-23T10:19:00;101075.78;;;11.33;62.23
61506;BME280;47366;51.916;4.574;2024-03-23T10:21:25;101082.88;;;11.05;62.12
61506;BME280;47366;51.916;4.574;2024-03-23T10:23:51;101079.75;;;10.97;64.59
61506;BME280;47366;51.916;4.574;2024-03-23T10:26:21;101077.38;;;10.91;65.12
61506;BME280;47366;51.916;4.574;2024-03-23T10:28:57;101072.25;;;11.17;64.34
61506;BME280;47366;51.916;4.574;2024-03-23T10:31:25;101073.69;;;11.53;63.03
61506;BME280;47366;51.916;4.574;2024-03-23T10:33:50;101075.78;;;12.06;62.43
61506;BME280;47366;51.916;4.574;2024-03-23T10:36:19;101067.91;;;12.16;63.10
61506;BME280;47366;51.916;4.574;2024-03-23T10:38:46;101057.53;;;11.80;61.20
61506;BME280;47366;51.916;4.574;2024-03-23T10:41:12;101074.63;;;11.37;61.29
61506;BME280;47366;51.916;4.574;2024-03-23T10:43:38;101046.16;;;11.44;60.40
61506;BME280;47366;51.916;4.574;2024-03-23T10:46:04;101065.84;;;11.77;58.74
61506;BME280;47366;51.916;4.574;2024-03-23T10:48:31;101070.41;;;12.19;60.15
61506;BME280;47366;51.916;4.574;2024-03-23T10:50:57;101051.31;;;12.48;59.64
61506;BME280;47366;51.916;4.574;2024-03-23T10:53:25;101067.47;;;12.91;60.34
61506;BME280;47366;51.916;4.574;2024-03-23T10:55:51;101053.47;;;12.97;58.68
61506;BME280;47366;51.916;4.574;2024-03-23T10:58:19;101070.47;;;13.13;57.55
61506;BME280;47366;51.916;4.574;2024-03-23T11:00:47;101046.56;;;12.91;56.20
61506;BME280;47366;51.916;4.574;2024-03-23T11:03:34;101067.28;;;12.67;54.48
61506;BME280;47366;51.916;4.574;2024-03-23T11:06:01;101067.97;;;12.15;54.68
61506;BME280;47366;51.916;4.574;2024-03-23T11:08:30;101060.81;;;12.14;58.43
61506;BME280;47366;51.916;4.574;2024-03-23T11:11:18;101058.22;;;12.39;55.62
61506;BME280;47366;51.916;4.574;2024-03-23T11:13:47;101049.66;;;12.72;55.97
61506;BME280;47366;51.916;4.574;2024-03-23T11:16:23;101060.16;;;12.79;55.04
61506;BME280;47366;51.916;4.574;2024-03-23T11:18:49;101055.03;;;12.47;54.61
61506;BME280;47366;51.916;4.574;2024-03-23T11:24:18;101048.69;;;12.05;55.39
61506;BME280;47366;51.916;4.574;2024-03-23T11:26:45;101048.69;;;12.19;58.01
61506;BME280;47366;51.916;4.574;2024-03-23T11:29:11;101050.38;;;12.35;54.71
61506;BME280;47366;51.916;4.574;2024-03-23T11:31:50;101037.34;;;12.54;55.39
61506;BME280;47366;51.916;4.574;2024-03-23T11:34:16;101035.13;;;12.73;55.71
61506;BME280;47366;51.916;4.574;2024-03-23T11:36:42;101046.72;;;13.15;54.56
61506;BME280;47366;51.916;4.574;2024-03-23T11:39:17;101038.09;;;13.49;52.60
61506;BME280;47366;51.916;4.574;2024-03-23T11:41:51;101030.59;;;13.52;54.32
61506;BME280;47366;51.916;4.574;2024-03-23T11:44:18;101027.22;;;13.62;54.94
61506;BME280;47366;51.916;4.574;2024-03-23T11:46:44;101029.78;;;13.25;56.14
61506;BME280;47366;51.916;4.574;2024-03-23T11:49:26;101026.91;;;13.41;55.65
61506;BME280;47366;51.916;4.574;2024-03-23T11:51:53;101036.31;;;13.09;55.32
61506;BME280;47366;51.916;4.574;2024-03-23T11:54:24;101036.38;;;12.95;55.60
61506;BME280;47366;51.916;4.574;2024-03-23T11:57:03;101025.09;;;12.61;56.66
61506;BME280;47366;51.916;4.574;2024-03-23T11:59:40;101026.13;;;12.31;55.10
61506;BME280;47366;51.916;4.574;2024-03-23T12:02:12;101024.91;;;12.77;56.50
61506;BME280;47366;51.916;4.574;2024-03-23T12:04:40;101024.03;;;13.16;56.18
61506;BME280;47366;51.916;4.574;2024-03-23T12:07:12;101019.63;;;13.54;54.73
61506;BME280;47366;51.916;4.574;2024-03-23T12:09:39;101019.06;;;13.62;55.02
61506;BME280;47366;51.916;4.574;2024-03-23T12:14:45;101007.16;;;13.24;54.59
61506;BME280;47366;51.916;4.574;2024-03-23T12:17:14;101015.50;;;12.95;54.19
61506;BME280;47366;51.916;4.574;2024-03-23T12:19:41;101009.34;;;12.66;53.95
61506;BME280;47366;51.916;4.574;2024-03-23T12:22:10;101013.53;;;12.30;54.93
61506;BME280;47366;51.916;4.574;2024-03-23T12:24:35;101006.44;;;12.42;55.41
61506;BME280;47366;51.916;4.574;2024-03-23T12:27:05;100995.91;;;12.90;54.60
61506;BME280;47366;51.916;4.574;2024-03-23T12:29:34;100990.38;;;13.17;54.37
61506;BME280;47366;51.916;4.574;2024-03-23T12:32:02;100987.66;;;12.92;53.50
61506;BME280;47366;51.916;4.574;2024-03-23T12:34:28;100989.94;;;12.58;53.19
61506;BME280;47366;51.916;4.574;2024-03-23T12:36:55;101001.84;;;12.16;54.75
61506;BME280;47366;51.916;4.574;2024-03-23T12:39:20;101005.50;;;11.87;55.47
61506;BME280;47366;51.916;4.574;2024-03-23T12:41:46;101002.28;;;11.95;55.45
61506;BME280;47366;51.916;4.574;2024-03-23T12:44:12;100992.22;;;12.24;54.76
61506;BME280;47366;51.916;4.574;2024-03-23T12:46:38;100988.84;;;12.21;55.10
61506;BME280;47366;51.916;4.574;2024-03-23T12:49:04;100992.66;;;12.04;55.18
61506;BME280;47366;51.916;4.574;2024-03-23T12:51:30;100992.06;;;11.99;56.02
61506;BME280;47366;51.916;4.574;2024-03-23T12:53:55;100993.44;;;11.92;55.97
61506;BME280;47366;51.916;4.574;2024-03-23T12:56:21;100988.00;;;11.77;56.26
61506;BME280;47366;51.916;4.574;2024-03-23T12:58:46;100984.72;;;11.58;55.83
61506;BME280;47366;51.916;4.574;2024-03-23T13:01:16;100980.34;;;11.98;55.60
61506;BME280;47366;51.916;4.574;2024-03-23T13:03:41;100978.59;;;12.11;54.04
61506;BME280;47366;51.916;4.574;2024-03-23T13:06:07;100978.09;;;12.05;54.32
61506;BME280;47366;51.916;4.574;2024-03-23T13:08:33;100966.75;;;12.40;55.15
61506;BME280;47366;51.916;4.574;2024-03-23T13:10:59;100961.09;;;12.83;53.98
61506;BME280;47366;51.916;4.574;2024-03-23T13:13:24;100967.31;;;13.10;55.04
61506;BME280;47366;51.916;4.574;2024-03-23T13:15:50;100965.84;;;12.66;51.87
61506;BME280;47366;51.916;4.574;2024-03-23T13:18:15;100969.25;;;12.83;54.29
61506;BME280;47366;51.916;4.574;2024-03-23T13:20:44;100955.50;;;12.59;52.17
61506;BME280;47366;51.916;4.574;2024-03-23T13:23:09;100961.59;;;12.75;51.61
61506;BME280;47366;51.916;4.574;2024-03-23T13:25:35;100960.88;;;12.86;50.86
61506;BME280;47366;51.916;4.574;2024-03-23T13:28:01;100965.31;;;12.61;51.09
61506;BME280;47366;51.916;4.574;2024-03-23T13:30:27;100971.81;;;12.31;53.59
61506;BME280;47366;51.916;4.574;2024-03-23T13:32:52;100969.72;;;12.22;54.63
61506;BME280;47366;51.916;4.574;2024-03-23T13:35:18;100964.16;;;12.11;53.41
61506;BME280;47366;51.916;4.574;2024-03-23T13:37:43;100965.91;;;11.98;54.10
61506;BME280;47366;51.916;4.574;2024-03-23T13:40:09;100962.03;;;12.02;53.51
61506;BME280;47366;51.916;4.574;2024-03-23T13:42:34;100948.63;;;11.99;53.60
61506;BME280;47366;51.916;4.574;2024-03-23T13:45:00;100956.63;;;11.87;53.34
61506;BME280;47366;51.916;4.574;2024-03-23T13:47:25;100950.31;;;11.73;53.96
61506;BME280;47366;51.916;4.574;2024-03-23T13:49:50;100951.31;;;11.57;54.29
61506;BME280;47366;51.916;4.574;2024-03-23T13:52:16;100957.53;;;11.31;54.84
61506;BME280;47366;51.916;4.574;2024-03-23T13:54:41;100975.06;;;11.25;55.76
61506;BME280;47366;51.916;4.574;2024-03-23T13:57:11;101000.56;;;10.92;55.52